Terminal Aerodrome Forecast
Issued by NWS

Home | Current Version | Previous Version | Text Only | Print | Product List | Glossary On
Versions: 1 2 3 4 5 6 7 8 9 10 11 12 13 14 15 16 17 18 19 20 21 22 23 24 25 26 27 28 29 30 31 32 33 34 35 36 37
585
FTUS43 KPAH 261501 AAB
TAFOWB
TAF AMD
KOWB 261501Z 2615/2712 27005KT 5SM HZ BKN012
      TEMPO 2615/2618 SCT012
     FM261800 23006KT P6SM VCTS SCT035CB
     FM270000 02004KT P6SM FEW150 SCT250
     FM270800 00000KT 4SM BR SCT050 BKN250=

USA.gov is the U.S. government's official web portal to all federal, state and local government web resources and services.